Time;durP1;ratioP1;P1;durP2;ratioP2;P2;SDS_P1;SDS_P2;PMS_P1;PMS_P2;Temp;Humidity;BMP_temperature;BMP_pressure;BME280_temperature;BME280_humidity;BME280_pressure;Samples;Min_cycle;Max_cycle;Signal;HPM_P1;HPM_P2
2022/06/22 00:01:31;;;;;;;4.97;4.50;;;26.20;99.90;;;;;;5026659;28;20561;-82
2022/06/22 00:04:02;;;;;;;4.80;4.40;;;26.20;99.90;;;;;;5028881;28;20490;-81
2022/06/22 00:06:36;;;;;;;4.80;4.40;;;26.20;99.90;;;;;;5030225;28;20472;-82
2022/06/22 00:09:06;;;;;;;5.00;4.50;;;26.10;99.90;;;;;;5031341;28;20967;-82
2022/06/22 00:11:36;;;;;;;6.03;5.40;;;26.10;99.90;;;;;;5038264;28;20459;-81
2022/06/22 00:14:05;;;;;;;5.33;4.87;;;26.10;99.90;;;;;;5030078;28;20460;-81
2022/06/22 00:16:36;;;;;;;5.30;4.90;;;26.10;99.90;;;;;;5016948;28;20477;-82
2022/06/22 00:19:18;;;;;;;4.67;4.27;;;26.10;99.90;;;;;;5027139;28;20952;-82
2022/06/22 00:21:50;;;;;;;5.10;4.70;;;26.10;99.90;;;;;;5027776;28;20452;-82
2022/06/22 00:24:37;;;;;;;5.00;4.60;;;26.10;99.90;;;;;;5027830;28;20979;-82
2022/06/22 00:27:27;;;;;;;5.70;5.30;;;26.00;99.90;;;;;;5031983;28;20467;-81
2022/06/22 00:30:14;;;;;;;4.83;4.53;;;26.00;99.90;;;;;;5028135;28;20449;-81
2022/06/22 00:32:58;;;;;;;4.27;4.03;;;26.00;99.90;;;;;;5027430;28;20459;-82
2022/06/22 00:35:48;;;;;;;4.40;3.90;;;25.90;99.90;;;;;;5024471;28;20510;-82
2022/06/22 00:38:19;;;;;;;5.23;4.83;;;25.90;99.90;;;;;;5030848;28;20472;-82
2022/06/22 00:40:51;;;;;;;6.20;5.60;;;25.90;99.90;;;;;;5057608;28;20448;-83
2022/06/22 00:43:20;;;;;;;5.33;4.20;;;25.80;99.90;;;;;;5032019;28;20472;-83
2022/06/22 00:45:50;;;;;;;5.40;4.90;;;25.90;99.90;;;;;;5031399;28;20468;-83
2022/06/22 00:48:24;;;;;;;4.70;4.30;;;25.90;99.90;;;;;;5028876;28;20503;-83
2022/06/22 00:51:01;;;;;;;4.67;4.37;;;25.90;99.90;;;;;;5028070;28;20449;-83
2022/06/22 00:53:34;;;;;;;4.33;4.03;;;25.90;99.90;;;;;;5030325;28;20513;-81
2022/06/22 00:56:10;;;;;;;4.33;4.03;;;25.90;99.90;;;;;;5030163;28;20506;-82
2022/06/22 00:58:46;;;;;;;4.50;4.20;;;25.80;99.90;;;;;;5031492;28;20547;-82
2022/06/22 01:01:21;;;;;;;4.53;4.00;;;25.90;99.90;;;;;;5028292;28;20461;-82
2022/06/22 01:03:59;;;;;;;4.70;4.40;;;25.80;99.90;;;;;;5027458;28;20474;-80
2022/06/22 01:06:39;;;;;;;4.80;4.50;;;25.80;99.90;;;;;;5022823;28;20476;-83
2022/06/22 01:09:16;;;;;;;5.17;4.70;;;25.70;99.90;;;;;;5032977;28;21012;-83
2022/06/22 01:14:43;;;;;;;5.70;5.00;;;25.70;99.90;;;;;;5032654;28;20445;-81
2022/06/22 01:17:18;;;;;;;5.60;5.10;;;25.70;99.90;;;;;;5030780;28;20842;-82
2022/06/22 01:19:53;;;;;;;7.37;5.90;;;25.70;99.90;;;;;;5030899;28;20453;-81
2022/06/22 01:22:52;;;;;;;5.23;4.83;;;25.70;99.90;;;;;;5029224;28;20460;-82
2022/06/22 01:25:36;;;;;;;5.30;4.70;;;25.70;99.90;;;;;;5031446;28;20989;-82
2022/06/22 01:28:06;;;;;;;5.50;5.00;;;25.70;99.90;;;;;;5030611;28;20489;-80
2022/06/22 01:30:40;;;;;;;5.47;4.97;;;25.70;99.90;;;;;;5027504;28;20467;-82
2022/06/22 01:33:15;;;;;;;5.23;4.80;;;25.70;99.90;;;;;;5028859;28;20462;-81
2022/06/22 01:35:43;;;;;;;5.70;5.30;;;25.70;99.90;;;;;;5027469;28;20994;-81
2022/06/22 01:38:14;;;;;;;6.03;5.30;;;25.70;99.90;;;;;;5024707;28;20480;-80
2022/06/22 01:40:46;;;;;;;5.77;5.27;;;25.70;99.90;;;;;;5032643;28;20453;-81
2022/06/22 01:43:27;;;;;;;6.37;5.87;;;25.70;99.90;;;;;;5031752;28;20467;-83
2022/06/22 01:46:05;;;;;;;6.90;6.40;;;25.70;99.90;;;;;;5033696;28;20463;-81
2022/06/22 01:48:38;;;;;;;5.97;5.10;;;25.70;99.90;;;;;;5029531;28;20836;-84
2022/06/22 01:51:14;;;;;;;5.60;5.20;;;25.70;99.90;;;;;;5035254;28;20456;-81
2022/06/22 01:53:47;;;;;;;6.13;5.73;;;25.70;99.90;;;;;;5030903;28;21188;-80
2022/06/22 01:56:24;;;;;;;6.17;5.67;;;25.70;99.90;;;;;;5033829;28;20456;-83
2022/06/22 01:59:05;;;;;;;6.13;5.53;;;25.70;99.90;;;;;;5044582;28;20456;-82
2022/06/22 02:01:39;;;;;;;8.27;5.37;;;25.60;99.90;;;;;;5033987;28;21051;-84
2022/06/22 02:04:19;;;;;;;6.37;5.87;;;25.60;99.90;;;;;;5033353;28;20471;-86
2022/06/22 02:09:58;;;;;;;5.70;5.17;;;25.50;99.90;;;;;;5030839;28;20457;-83
2022/06/22 02:12:33;;;;;;;5.87;5.37;;;25.60;99.90;;;;;;5032479;28;20463;-83
2022/06/22 02:15:11;;;;;;;7.37;5.77;;;25.60;99.90;;;;;;5023266;28;20940;-81
2022/06/22 02:17:42;;;;;;;5.70;5.20;;;25.60;99.90;;;;;;5031218;28;20930;-86
2022/06/22 02:20:36;;;;;;;6.10;5.67;;;25.50;99.90;;;;;;5023501;28;20468;-82
2022/06/22 02:23:20;;;;;;;6.70;6.10;;;25.60;99.90;;;;;;5031797;28;20460;-83
2022/06/22 02:25:58;;;;;;;6.70;6.03;;;25.60;99.90;;;;;;5033492;28;20452;-80
2022/06/22 02:28:26;;;;;;;7.10;5.33;;;25.50;99.90;;;;;;5029534;28;20457;-82
2022/06/22 02:30:56;;;;;;;6.43;5.93;;;25.50;99.90;;;;;;5027565;28;20452;-82
2022/06/22 02:33:25;;;;;;;6.40;5.77;;;25.50;99.90;;;;;;5031168;28;20563;-82
2022/06/22 02:35:54;;;;;;;6.40;5.83;;;25.50;99.90;;;;;;5028002;28;20449;-83
2022/06/22 02:38:22;;;;;;;6.20;5.73;;;25.50;99.90;;;;;;5031159;28;20483;-83
2022/06/22 02:46:32;;;;;;;6.10;5.60;;;25.30;99.90;;;;;;5031100;28;20503;-83
2022/06/22 02:49:03;;;;;;;7.00;6.07;;;25.30;99.90;;;;;;5033674;28;20484;-84
2022/06/22 02:51:37;;;;;;;7.20;6.67;;;25.20;99.90;;;;;;5033347;28;20475;-82
2022/06/22 02:54:11;;;;;;;6.33;5.77;;;25.20;99.90;;;;;;5029421;28;20452;-82
2022/06/22 02:56:41;;;;;;;6.40;5.90;;;25.10;99.90;;;;;;5032810;28;20480;-83
2022/06/22 02:59:12;;;;;;;6.53;6.03;;;25.10;99.90;;;;;;5031989;28;20454;-82
2022/06/22 03:01:41;;;;;;;6.03;5.53;;;25.10;99.90;;;;;;5027090;28;20450;-83
2022/06/22 03:04:13;;;;;;;6.87;6.27;;;25.20;99.90;;;;;;5031671;28;20464;-85
2022/06/22 03:06:45;;;;;;;6.50;5.90;;;25.20;99.90;;;;;;5031807;28;20497;-82
2022/06/22 03:09:14;;;;;;;6.37;5.87;;;25.20;99.90;;;;;;5033419;28;20449;-81
2022/06/22 03:11:47;;;;;;;6.77;6.03;;;25.20;99.90;;;;;;5031601;28;20451;-82
2022/06/22 03:14:21;;;;;;;6.67;6.07;;;25.20;99.90;;;;;;5031364;28;20463;-82
2022/06/22 03:16:55;;;;;;;6.10;5.70;;;24.70;99.90;;;;;;5028464;28;20472;-81
2022/06/22 03:19:28;;;;;;;6.80;6.30;;;25.20;99.90;;;;;;5030226;28;20444;-81
2022/06/22 03:21:57;;;;;;;7.53;5.87;;;25.20;99.90;;;;;;5029439;28;20504;-82
2022/06/22 03:24:40;;;;;;;6.17;5.57;;;25.20;99.90;;;;;;5028826;28;20493;-82
2022/06/22 03:27:15;;;;;;;6.53;5.93;;;25.20;99.90;;;;;;5029421;28;20522;-82
2022/06/22 03:29:48;;;;;;;6.93;5.30;;;25.20;99.90;;;;;;5026459;28;20448;-82
2022/06/22 03:32:25;;;;;;;5.10;4.80;;;25.20;99.90;;;;;;5027901;28;20452;-82
2022/06/22 03:35:02;;;;;;;13.27;6.70;;;25.20;99.90;;;;;;5031052;28;21281;-84
2022/06/22 03:37:35;;;;;;;6.33;5.73;;;25.20;99.90;;;;;;5062846;28;20877;-82
2022/06/22 03:40:09;;;;;;;5.97;5.47;;;25.10;99.90;;;;;;5029572;28;21164;-81
2022/06/22 03:42:44;;;;;;;7.00;6.50;;;25.00;99.90;;;;;;5026898;28;20548;-82
2022/06/22 03:45:17;;;;;;;6.50;5.20;;;25.00;99.90;;;;;;5031069;28;20479;-82
2022/06/22 03:47:55;;;;;;;7.30;6.43;;;25.00;99.90;;;;;;5028443;28;20483;-82
2022/06/22 03:50:31;;;;;;;6.40;5.60;;;25.00;99.90;;;;;;5056813;28;20452;-81
2022/06/22 03:53:06;;;;;;;6.97;6.30;;;25.00;99.90;;;;;;5030007;28;20514;-81
2022/06/22 03:55:38;;;;;;;6.60;6.10;;;25.00;99.90;;;;;;5062466;28;20452;-82
2022/06/22 03:58:09;;;;;;;6.27;5.77;;;25.00;99.90;;;;;;5018790;28;20461;-81
2022/06/22 04:00:41;;;;;;;5.80;5.40;;;25.00;99.90;;;;;;5024870;28;20464;-84
2022/06/22 04:03:14;;;;;;;6.63;5.93;;;25.00;99.90;;;;;;5030261;28;20452;-81
2022/06/22 04:05:47;;;;;;;6.47;5.97;;;25.00;99.90;;;;;;5017786;28;20478;-81
2022/06/22 04:08:22;;;;;;;5.60;5.20;;;25.00;99.90;;;;;;5028908;28;20469;-80
2022/06/22 04:10:54;;;;;;;5.53;5.10;;;25.00;99.90;;;;;;5030220;28;20460;-81
2022/06/22 04:13:28;;;;;;;5.43;5.07;;;24.90;99.90;;;;;;5029425;28;20452;-81
2022/06/22 04:16:02;;;;;;;5.50;5.10;;;25.00;99.90;;;;;;5026989;28;20527;-81
2022/06/22 04:18:35;;;;;;;4.80;4.40;;;25.00;99.90;;;;;;5028982;28;20522;-83
2022/06/22 04:21:07;;;;;;;6.10;5.50;;;24.90;99.90;;;;;;5028497;28;20488;-81
2022/06/22 04:23:41;;;;;;;8.70;6.47;;;25.00;99.90;;;;;;5028380;28;20510;-81
2022/06/22 04:26:14;;;;;;;5.73;5.20;;;25.00;99.90;;;;;;5027818;28;20543;-80
2022/06/22 04:28:46;;;;;;;6.07;5.47;;;25.00;99.90;;;;;;5028939;28;20455;-80
2022/06/22 04:31:19;;;;;;;6.23;5.63;;;24.90;99.90;;;;;;5029699;28;20448;-82
2022/06/22 04:33:53;;;;;;;5.80;5.40;;;24.90;99.90;;;;;;5021549;28;20448;-79
2022/06/22 04:36:26;;;;;;;6.10;5.70;;;24.90;99.90;;;;;;5025114;28;20607;-77
2022/06/22 04:39:00;;;;;;;5.73;5.13;;;24.90;99.90;;;;;;5026708;28;20476;-79
2022/06/22 04:41:31;;;;;;;7.77;5.60;;;25.00;99.90;;;;;;5031076;28;20478;-81
2022/06/22 04:44:18;;;;;;;5.50;5.10;;;24.90;99.90;;;;;;5027682;28;20487;-77
2022/06/22 04:46:49;;;;;;;6.87;6.20;;;24.80;99.90;;;;;;5033791;28;20496;-77
2022/06/22 04:49:25;;;;;;;5.83;5.30;;;24.80;99.90;;;;;;5034740;28;20448;-79
2022/06/22 04:51:58;;;;;;;6.03;5.53;;;24.80;99.90;;;;;;5066034;28;20508;-78
2022/06/22 04:54:31;;;;;;;6.13;5.73;;;24.90;99.90;;;;;;5031807;28;20539;-79
2022/06/22 04:57:05;;;;;;;5.53;5.10;;;24.90;99.90;;;;;;5030959;28;20553;-78
2022/06/22 04:59:34;;;;;;;6.00;5.60;;;24.90;99.90;;;;;;5027232;28;20467;-78
2022/06/22 05:02:05;;;;;;;6.47;5.97;;;25.00;99.90;;;;;;5023794;28;20440;-78
2022/06/22 05:04:39;;;;;;;5.80;5.33;;;25.00;99.90;;;;;;5028026;28;20460;-79
2022/06/22 05:07:13;;;;;;;6.50;5.90;;;25.00;99.90;;;;;;5027904;28;20488;-78
2022/06/22 05:09:47;;;;;;;6.47;5.83;;;25.00;99.90;;;;;;5032210;28;20468;-77
2022/06/22 05:12:19;;;;;;;7.33;6.47;;;25.00;99.90;;;;;;5029349;28;20501;-79
2022/06/22 05:14:49;;;;;;;6.07;5.60;;;25.00;99.90;;;;;;5051841;28;20453;-77
2022/06/22 05:17:23;;;;;;;7.70;5.90;;;24.90;99.90;;;;;;5026115;28;20937;-79
2022/06/22 05:20:05;;;;;;;6.50;5.40;;;24.90;99.90;;;;;;5027568;28;20448;-83
2022/06/22 05:22:33;;;;;;;6.63;5.90;;;25.00;99.90;;;;;;5030154;28;20543;-83
2022/06/22 05:25:05;;;;;;;7.30;6.60;;;25.00;99.90;;;;;;5065023;28;21034;-83
2022/06/22 05:27:41;;;;;;;5.83;5.43;;;25.10;99.90;;;;;;5033883;28;20845;-83
2022/06/22 05:30:12;;;;;;;6.87;6.17;;;25.20;99.90;;;;;;5029926;28;20807;-83
2022/06/22 05:32:43;;;;;;;7.47;5.77;;;25.20;99.90;;;;;;5031539;28;20457;-83
2022/06/22 05:35:22;;;;;;;6.40;5.80;;;25.10;99.90;;;;;;5029945;28;20460;-83
2022/06/22 05:37:53;;;;;;;6.00;5.40;;;25.20;99.90;;;;;;5028144;28;21030;-84
2022/06/22 05:40:26;;;;;;;7.27;6.57;;;25.20;99.90;;;;;;5028137;28;20443;-84
2022/06/22 05:42:56;;;;;;;6.10;5.60;;;25.20;99.90;;;;;;5028483;28;20452;-84
2022/06/22 05:45:27;;;;;;;6.83;6.20;;;25.10;99.90;;;;;;5029938;28;21030;-84
2022/06/22 05:47:57;;;;;;;9.70;6.87;;;25.10;99.90;;;;;;5025007;28;20488;-84
2022/06/22 05:50:35;;;;;;;6.80;6.10;;;25.00;99.90;;;;;;5024890;28;20452;-84
2022/06/22 05:53:10;;;;;;;7.17;5.60;;;24.80;99.90;;;;;;5030949;28;20464;-84
2022/06/22 05:55:45;;;;;;;7.37;6.67;;;24.80;99.90;;;;;;5031429;28;20452;-85
2022/06/22 05:58:23;;;;;;;6.20;5.60;;;24.70;99.90;;;;;;5038063;28;20464;-85
2022/06/22 06:00:54;;;;;;;6.47;5.90;;;24.80;99.90;;;;;;5032983;28;20452;-84
2022/06/22 06:03:41;;;;;;;6.03;5.53;;;24.90;99.90;;;;;;5034094;28;20961;-85
2022/06/22 06:06:17;;;;;;;7.03;6.40;;;24.80;99.90;;;;;;5025014;28;20496;-85
2022/06/22 06:08:49;;;;;;;7.00;6.30;;;24.70;99.90;;;;;;5025383;28;20452;-84
2022/06/22 06:11:21;;;;;;;7.90;6.43;;;24.80;99.90;;;;;;5025029;28;20484;-85
2022/06/22 06:13:58;;;;;;;6.70;5.23;;;24.80;99.90;;;;;;5026874;28;20472;-85
2022/06/22 06:16:30;;;;;;;5.20;4.70;;;25.00;99.90;;;;;;5022370;28;20476;-84
2022/06/22 06:19:03;;;;;;;6.63;5.60;;;25.00;99.90;;;;;;5032106;28;20514;-85
2022/06/22 06:21:37;;;;;;;7.20;5.40;;;25.10;99.90;;;;;;5021052;28;20455;-85
2022/06/22 06:24:15;;;;;;;5.60;5.13;;;25.10;99.90;;;;;;5031548;28;20444;-84
2022/06/22 06:29:43;;;;;;;7.00;6.40;;;25.00;99.90;;;;;;5028818;28;20437;-85
2022/06/22 06:32:26;;;;;;;8.60;6.72;;;24.90;99.90;;;;;;4986791;28;1178818;-84
2022/06/22 06:34:59;;;;;;;8.40;7.30;;;24.50;1.00;;;;;;5027865;28;20217;-81
2022/06/22 06:37:44;;;;;;;6.60;5.60;;;24.40;1.00;;;;;;5025330;28;20476;-84
2022/06/22 06:40:16;;;;;;;6.40;5.80;;;24.30;1.00;;;;;;5029953;28;20457;-83
2022/06/22 06:42:53;;;;;;;6.60;6.10;;;24.20;1.00;;;;;;5030813;28;20463;-84
2022/06/22 06:45:24;;;;;;;6.70;6.10;;;24.20;1.00;;;;;;5029673;28;20456;-83
2022/06/22 06:48:00;;;;;;;6.40;5.90;;;24.30;1.00;;;;;;5025058;28;20573;-83
2022/06/22 06:50:32;;;;;;;7.73;6.13;;;24.20;47.30;;;;;;5028654;28;20536;-83
2022/06/22 06:53:10;;;;;;;8.23;6.70;;;24.80;29.40;;;;;;5029882;28;20460;-83
2022/06/22 06:55:45;;;;;;;6.80;6.20;;;24.50;5.70;;;;;;5017857;28;20475;-83
2022/06/22 06:58:19;;;;;;;7.27;6.47;;;24.60;1.00;;;;;;5029025;28;20476;-83
2022/06/22 07:00:48;;;;;;;8.23;6.37;;;24.60;1.00;;;;;;5022226;28;20463;-84
2022/06/22 07:03:21;;;;;;;8.00;7.00;;;24.70;31.60;;;;;;5026852;28;20452;-84
2022/06/22 07:05:51;;;;;;;7.17;6.47;;;24.70;99.90;;;;;;5024983;28;20449;-84
2022/06/22 07:08:24;;;;;;;10.57;6.60;;;24.70;99.90;;;;;;5027122;28;20815;-85
2022/06/22 07:11:15;;;;;;;8.00;6.90;;;24.70;99.90;;;;;;5023065;28;20472;-83
2022/06/22 07:13:49;;;;;;;9.33;7.60;;;24.70;99.90;;;;;;5062515;28;20813;-83
2022/06/22 07:16:21;;;;;;;7.77;7.07;;;24.70;99.90;;;;;;5025970;28;20456;-84
2022/06/22 07:18:54;;;;;;;8.07;7.27;;;24.70;99.90;;;;;;5020960;28;20553;-84
2022/06/22 07:21:32;;;;;;;8.17;7.47;;;24.70;99.90;;;;;;5054941;28;20471;-83
2022/06/22 07:24:08;;;;;;;11.03;7.97;;;24.70;1.00;;;;;;5021321;28;20457;-84
2022/06/22 07:26:50;;;;;;;9.17;8.23;;;24.70;1.00;;;;;;5024279;28;21041;-84
2022/06/22 07:29:27;;;;;;;7.00;6.10;;;24.80;1.00;;;;;;5023767;28;20456;-84
2022/06/22 07:32:02;;;;;;;6.63;6.17;;;24.80;1.00;;;;;;5022166;28;20498;-84
2022/06/22 07:34:38;;;;;;;6.60;6.00;;;24.80;99.90;;;;;;5028121;28;20457;-83
2022/06/22 07:37:14;;;;;;;10.43;5.97;;;24.80;99.90;;;;;;5029293;28;20479;-84
2022/06/22 07:39:49;;;;;;;6.70;6.03;;;24.80;99.90;;;;;;5029439;28;20448;-83
2022/06/22 07:42:17;;;;;;;7.50;6.80;;;24.80;99.90;;;;;;5021699;28;20472;-83
2022/06/22 07:44:45;;;;;;;6.67;6.00;;;24.90;99.90;;;;;;5022236;28;21244;-83
2022/06/22 07:47:25;;;;;;;6.00;5.60;;;24.80;1.00;;;;;;5022216;28;20495;-83
2022/06/22 07:49:58;;;;;;;6.70;6.20;;;24.80;1.00;;;;;;5023128;28;20464;-84
2022/06/22 07:52:32;;;;;;;7.77;6.60;;;24.80;1.00;;;;;;5023503;28;20464;-84
2022/06/22 07:55:13;;;;;;;6.63;6.03;;;24.80;1.00;;;;;;5023590;28;20505;-81
2022/06/22 07:57:48;;;;;;;9.13;6.70;;;24.80;99.90;;;;;;5039839;28;20527;-84
2022/06/22 08:00:20;;;;;;;6.73;6.23;;;24.60;1.00;;;;;;5025430;28;20471;-83
2022/06/22 08:02:55;;;;;;;6.53;5.83;;;24.70;1.00;;;;;;5022049;28;20546;-83
2022/06/22 08:05:28;;;;;;;9.27;6.97;;;24.70;1.00;;;;;;5024144;28;20510;-83
2022/06/22 08:08:02;;;;;;;7.43;6.73;;;24.80;1.00;;;;;;5028294;28;20479;-83
2022/06/22 08:10:37;;;;;;;7.17;6.37;;;24.70;1.00;;;;;;5030195;28;20498;-83
2022/06/22 08:13:10;;;;;;;8.73;5.97;;;24.80;1.00;;;;;;5028758;28;20967;-84
2022/06/22 08:15:42;;;;;;;6.80;6.30;;;24.70;1.00;;;;;;5021908;28;20606;-83
2022/06/22 08:18:11;;;;;;;7.27;6.53;;;24.70;1.00;;;;;;5021536;28;20480;-83
2022/06/22 08:20:43;;;;;;;7.87;6.53;;;24.70;81.90;;;;;;5026056;28;20876;-83
2022/06/22 08:23:16;;;;;;;6.30;5.70;;;24.80;4.70;;;;;;5027759;28;20468;-84
2022/06/22 08:26:04;;;;;;;6.10;5.60;;;24.70;13.10;;;;;;5025155;28;20546;-83
2022/06/22 08:28:37;;;;;;;6.80;6.27;;;24.80;37.70;;;;;;5019152;28;20476;-83
2022/06/22 08:31:06;;;;;;;6.40;5.80;;;24.90;1.00;;;;;;5020946;28;20982;-83
2022/06/22 08:33:39;;;;;;;6.20;5.77;;;24.90;1.00;;;;;;5022274;28;20436;-83
2022/06/22 08:36:21;;;;;;;6.63;5.93;;;24.90;1.00;;;;;;5019095;28;21029;-84
2022/06/22 08:38:57;;;;;;;5.97;5.50;;;25.00;1.00;;;;;;5028868;28;20448;-83
2022/06/22 08:41:40;;;;;;;6.10;5.70;;;25.00;1.00;;;;;;5028207;28;20487;-83
2022/06/22 08:44:20;;;;;;;6.53;5.93;;;24.90;1.00;;;;;;5039287;28;20461;-83
2022/06/22 08:47:26;;;;;;;8.23;5.93;;;24.90;1.00;;;;;;5022117;28;20484;-83
2022/06/22 08:50:12;;;;;;;6.20;5.60;;;24.90;1.00;;;;;;5019632;28;20457;-83
2022/06/22 08:53:01;;;;;;;6.93;6.23;;;24.80;1.00;;;;;;5024557;28;20469;-84
2022/06/22 08:55:57;;;;;;;7.37;6.47;;;24.80;1.00;;;;;;5026888;28;20548;-84
2022/06/22 08:58:58;;;;;;;6.70;6.20;;;24.80;1.00;;;;;;5029494;28;20472;-83
2022/06/22 09:01:34;;;;;;;7.57;6.50;;;24.80;1.00;;;;;;5024936;28;20469;-84
2022/06/22 09:04:32;;;;;;;7.93;7.23;;;24.80;1.00;;;;;;5029895;28;21120;-83
2022/06/22 09:07:17;;;;;;;6.23;5.83;;;24.50;99.90;;;;;;5026652;28;20477;-84
2022/06/22 09:10:17;;;;;;;6.37;5.83;;;24.60;74.70;;;;;;5020126;28;20448;-83
2022/06/22 09:13:02;;;;;;;6.63;5.90;;;24.50;99.90;;;;;;5020876;28;20456;-84
2022/06/22 09:15:42;;;;;;;10.37;7.97;;;24.70;99.90;;;;;;5023105;28;20484;-85
2022/06/22 09:18:36;;;;;;;8.20;7.43;;;24.70;99.90;;;;;;5036571;28;20560;-83
2022/06/22 09:21:23;;;;;;;7.17;6.67;;;24.50;99.90;;;;;;5027968;28;20889;-83
2022/06/22 09:24:04;;;;;;;6.93;6.37;;;24.50;99.90;;;;;;5034107;28;20483;-83
2022/06/22 09:26:38;;;;;;;6.70;6.10;;;24.60;99.90;;;;;;5034691;28;20472;-84
2022/06/22 09:29:21;;;;;;;8.47;7.10;;;24.60;99.90;;;;;;5033111;28;20483;-83
2022/06/22 09:32:24;;;;;;;6.30;5.80;;;24.70;99.90;;;;;;5033010;28;20460;-84
2022/06/22 09:35:11;;;;;;;6.97;6.30;;;24.80;99.90;;;;;;5031401;28;20455;-83
2022/06/22 09:37:54;;;;;;;7.20;6.70;;;24.80;90.80;;;;;;5034511;28;20555;-82
2022/06/22 09:40:34;;;;;;;7.03;6.00;;;24.90;92.30;;;;;;5030276;28;20518;-84
2022/06/22 09:43:40;;;;;;;8.53;7.77;;;25.00;99.90;;;;;;5035717;28;20447;-83
2022/06/22 09:46:20;;;;;;;6.70;6.03;;;25.00;99.90;;;;;;5027612;28;20471;-84
2022/06/22 09:49:05;;;;;;;6.57;5.97;;;25.00;98.20;;;;;;5029904;28;20561;-83
2022/06/22 09:51:59;;;;;;;6.33;5.27;;;25.00;61.20;;;;;;5028970;28;20555;-83
2022/06/22 09:57:48;;;;;;;5.70;5.17;;;25.00;1.00;;;;;;5027669;28;20494;-83
2022/06/22 10:00:20;;;;;;;6.47;5.33;;;25.10;1.00;;;;;;5026819;28;20866;-83
2022/06/22 10:03:24;;;;;;;6.07;5.67;;;25.20;1.00;;;;;;5026510;28;20478;-85
2022/06/22 10:06:23;;;;;;;7.33;6.63;;;25.10;1.00;;;;;;5032358;28;20974;-84
2022/06/22 10:09:12;;;;;;;6.63;6.00;;;25.10;1.00;;;;;;5035963;28;20492;-84
2022/06/22 10:11:46;;;;;;;7.47;6.77;;;25.10;1.00;;;;;;5029442;28;20489;-85
2022/06/22 10:14:51;;;;;;;6.53;6.07;;;25.00;1.00;;;;;;5033552;28;20452;-85
2022/06/22 10:17:54;;;;;;;7.70;6.27;;;24.90;1.00;;;;;;5035653;28;21304;-84
2022/06/22 10:20:39;;;;;;;5.50;5.17;;;24.90;1.00;;;;;;5019912;28;21053;-84
2022/06/22 10:23:28;;;;;;;4.93;4.53;;;24.80;99.90;;;;;;5031384;28;20452;-83
2022/06/22 10:26:16;;;;;;;5.10;4.53;;;24.80;1.00;;;;;;5063464;28;21099;-84
2022/06/22 10:29:16;;;;;;;5.00;4.60;;;24.80;99.90;;;;;;5032271;28;20496;-83
2022/06/22 10:32:03;;;;;;;5.63;5.10;;;24.80;1.00;;;;;;5025777;28;20490;-84
2022/06/22 10:34:40;;;;;;;5.20;4.80;;;24.80;1.00;;;;;;5031807;28;20452;-84
2022/06/22 10:37:29;;;;;;;6.57;4.80;;;24.80;1.00;;;;;;5030350;28;20471;-84
2022/06/22 10:46:23;;;;;;;4.90;4.40;;;24.80;1.00;;;;;;5005252;28;20453;-86
2022/06/22 10:49:12;;;;;;;6.60;5.67;;;24.80;1.00;;;;;;5029561;28;20495;-87
2022/06/22 10:52:03;;;;;;;5.30;4.73;;;24.80;1.00;;;;;;5023821;28;20977;-86
2022/06/22 10:55:07;;;;;;;6.00;5.20;;;24.70;1.00;;;;;;5013695;28;20977;-86
2022/06/22 10:57:54;;;;;;;6.27;5.70;;;24.80;1.00;;;;;;5030922;28;20483;-87
2022/06/22 11:00:34;;;;;;;7.33;5.20;;;24.80;1.00;;;;;;5036182;28;20440;-87
2022/06/22 11:03:43;;;;;;;5.03;4.53;;;24.80;1.00;;;;;;5071496;28;20456;-86
2022/06/22 11:06:29;;;;;;;5.00;4.70;;;24.80;1.00;;;;;;5038655;28;20472;-85
2022/06/22 11:09:23;;;;;;;8.90;4.83;;;24.80;1.00;;;;;;5033122;28;20468;-86
2022/06/22 11:12:14;;;;;;;6.40;5.87;;;24.80;1.00;;;;;;5030549;28;20463;-86
2022/06/22 11:15:17;;;;;;;5.70;4.70;;;24.70;2.70;;;;;;5033058;28;20449;-86
2022/06/22 11:18:06;;;;;;;6.33;5.80;;;24.50;99.90;;;;;;5026533;28;20522;-86
2022/06/22 11:20:46;;;;;;;5.60;5.10;;;24.30;99.90;;;;;;5027083;28;20988;-86
2022/06/22 11:23:23;;;;;;;7.40;6.27;;;24.40;99.90;;;;;;5066159;28;20979;-87
2022/06/22 11:32:31;;;;;;;6.47;5.30;;;24.30;99.90;;;;;;5055887;28;20995;-84
2022/06/22 11:35:30;;;;;;;9.77;6.33;;;24.40;99.90;;;;;;5056793;28;20456;-86
2022/06/22 11:38:15;;;;;;;6.10;4.40;;;24.30;99.90;;;;;;5020878;28;20909;-87
2022/06/22 11:40:56;;;;;;;6.40;5.07;;;24.40;99.90;;;;;;5021244;28;20460;-87
2022/06/22 11:43:46;;;;;;;5.73;5.20;;;24.50;87.80;;;;;;5026609;28;20461;-88
2022/06/22 11:46:19;;;;;;;8.47;4.83;;;24.50;99.90;;;;;;5018488;28;20460;-86
2022/06/22 11:49:20;;;;;;;6.43;5.00;;;24.40;14.30;;;;;;5029274;28;20503;-87
2022/06/22 11:52:12;;;;;;;5.13;4.73;;;24.40;99.90;;;;;;5016502;28;22464;-86
2022/06/22 11:55:03;;;;;;;5.80;4.90;;;24.30;99.90;;;;;;5024004;28;20476;-85
2022/06/22 11:58:09;;;;;;;5.40;4.67;;;24.30;99.90;;;;;;5023921;28;20481;-85
2022/06/22 12:00:50;;;;;;;6.87;3.63;;;24.30;99.90;;;;;;5010452;28;20457;-86
2022/06/22 12:03:59;;;;;;;4.13;3.73;;;24.10;99.90;;;;;;5023041;28;20471;-86
2022/06/22 12:06:55;;;;;;;6.93;4.10;;;24.30;63.30;;;;;;5021386;28;20609;-86
2022/06/22 12:09:41;;;;;;;5.07;2.97;;;24.30;1.00;;;;;;5028372;28;20464;-87
2022/06/22 12:12:37;;;;;;;4.60;4.13;;;24.20;1.00;;;;;;5031055;28;20533;-86
2022/06/22 12:15:16;;;;;;;5.73;3.80;;;24.20;99.90;;;;;;5029202;28;20459;-88
2022/06/22 12:17:58;;;;;;;6.60;3.47;;;24.10;1.00;;;;;;5016496;28;20483;-85
2022/06/22 12:20:38;;;;;;;5.20;2.67;;;24.30;99.90;;;;;;5022087;28;20445;-87
2022/06/22 12:23:20;;;;;;;6.93;3.03;;;24.40;1.00;;;;;;5021645;28;20551;-86
2022/06/22 12:26:01;;;;;;;7.67;2.60;;;24.50;2.00;;;;;;5025691;28;20535;-85
2022/06/22 12:29:02;;;;;;;7.13;3.50;;;24.50;1.00;;;;;;5027926;28;20490;-87
2022/06/22 12:31:35;;;;;;;4.00;2.93;;;24.50;1.00;;;;;;5063381;28;20502;-86
2022/06/22 12:34:30;;;;;;;7.53;2.47;;;24.50;1.00;;;;;;5028757;28;20468;-86
2022/06/22 12:37:02;;;;;;;5.77;2.00;;;24.50;1.00;;;;;;5025524;28;20472;-86
2022/06/22 12:39:37;;;;;;;6.57;2.30;;;24.50;1.00;;;;;;5029010;28;20437;-85
2022/06/22 12:42:23;;;;;;;6.20;2.40;;;24.50;1.00;;;;;;5028841;28;20464;-85
2022/06/22 12:45:12;;;;;;;8.73;2.50;;;24.60;1.00;;;;;;5027440;28;20487;-82
2022/06/22 12:48:15;;;;;;;6.27;3.37;;;24.40;1.00;;;;;;5026746;28;20522;-83
2022/06/22 12:50:57;;;;;;;3.53;2.33;;;24.50;1.00;;;;;;5027949;28;20671;-82
2022/06/22 12:53:32;;;;;;;6.03;2.80;;;24.60;1.00;;;;;;5027721;28;20843;-83
2022/06/22 12:56:08;;;;;;;6.30;3.60;;;24.60;1.00;;;;;;5027086;28;20455;-82
2022/06/22 12:58:43;;;;;;;7.90;2.60;;;25.00;1.00;;;;;;5019294;28;20444;-83
2022/06/22 13:01:12;;;;;;;4.60;2.87;;;24.70;1.00;;;;;;5038577;28;20971;-87
2022/06/22 13:03:44;;;;;;;9.03;2.60;;;24.70;1.00;;;;;;5026979;28;20538;-83
2022/06/22 13:06:13;;;;;;;5.80;2.73;;;24.80;1.00;;;;;;5029030;28;20948;-82
2022/06/22 13:08:43;;;;;;;7.57;2.83;;;24.80;1.00;;;;;;5025050;28;20452;-82
2022/06/22 13:11:19;;;;;;;5.57;2.53;;;24.90;1.00;;;;;;5021048;28;20456;-81
2022/06/22 13:13:55;;;;;;;6.03;2.23;;;24.90;99.90;;;;;;5025357;28;20968;-82
2022/06/22 13:16:29;;;;;;;8.57;2.77;;;24.90;99.90;;;;;;5022222;28;20968;-81
2022/06/22 13:19:06;;;;;;;11.70;3.00;;;24.90;99.90;;;;;;5023467;28;20841;-82
2022/06/22 13:21:42;;;;;;;6.20;2.90;;;24.90;99.90;;;;;;5021467;28;20551;-82
2022/06/22 13:24:22;;;;;;;5.50;2.10;;;25.00;99.90;;;;;;5023812;28;20542;-81
2022/06/22 13:27:01;;;;;;;4.43;1.93;;;24.90;99.90;;;;;;5024013;28;20487;-82
2022/06/22 13:29:35;;;;;;;10.40;4.50;;;24.90;99.90;;;;;;5022929;28;20472;-82
2022/06/22 13:32:07;;;;;;;3.67;2.00;;;25.00;99.90;;;;;;5034414;28;20486;-82
2022/06/22 13:34:41;;;;;;;8.50;2.70;;;25.00;99.90;;;;;;5029992;28;20543;-81
2022/06/22 13:37:17;;;;;;;7.50;2.27;;;25.00;99.90;;;;;;5029904;28;20590;-81
2022/06/22 13:40:01;;;;;;;6.10;2.83;;;25.00;99.90;;;;;;5031829;28;20459;-81
2022/06/22 13:43:14;;;;;;;4.93;3.10;;;25.10;99.90;;;;;;5025520;28;20441;-82
2022/06/22 13:45:55;;;;;;;7.07;2.53;;;25.10;99.90;;;;;;5006918;28;20440;-81
2022/06/22 13:48:29;;;;;;;4.73;2.83;;;25.20;99.90;;;;;;5022384;28;20510;-81
2022/06/22 13:51:29;;;;;;;9.93;3.10;;;25.20;99.90;;;;;;5020149;28;20495;-81
2022/06/22 13:54:33;;;;;;;12.07;3.10;;;25.20;1.00;;;;;;5030252;28;20468;-81
2022/06/22 13:57:10;;;;;;;6.17;2.40;;;25.20;99.90;;;;;;5032713;28;20551;-81
2022/06/22 13:59:48;;;;;;;6.27;2.70;;;25.20;99.90;;;;;;5030076;28;20531;-81
2022/06/22 14:02:27;;;;;;;3.43;2.40;;;25.20;99.90;;;;;;5029727;28;21044;-81
2022/06/22 14:05:01;;;;;;;10.47;2.77;;;25.20;99.90;;;;;;5027957;28;20560;-80
2022/06/22 14:07:33;;;;;;;8.13;2.80;;;25.20;99.90;;;;;;5025185;28;20476;-81
2022/06/22 14:10:17;;;;;;;6.20;3.63;;;25.30;99.90;;;;;;5022863;28;20845;-82
2022/06/22 14:13:16;;;;;;;7.43;2.40;;;25.20;99.90;;;;;;5025877;28;20502;-85
2022/06/22 14:15:49;;;;;;;12.03;2.53;;;25.20;99.90;;;;;;5058509;28;21777;-85
2022/06/22 14:18:29;;;;;;;9.30;2.30;;;25.10;99.90;;;;;;5032024;28;20476;-84
2022/06/22 14:21:11;;;;;;;8.30;3.20;;;24.90;99.90;;;;;;5020145;28;20457;-85